createdAt,value
2019-05-29T00:00:46.881Z,8.93
2019-05-29T00:03:18.638Z,4.75
2019-05-29T00:05:49.356Z,5.42
2019-05-29T00:08:20.137Z,6.05
2019-05-29T00:10:50.809Z,7.65
2019-05-29T00:13:21.476Z,6.37
2019-05-29T00:15:54.341Z,8.43
2019-05-29T00:18:25.171Z,5.83
2019-05-29T00:20:55.870Z,10.00
2019-05-29T00:23:26.594Z,8.90
2019-05-29T00:25:57.426Z,6.08
2019-05-29T00:28:28.621Z,6.17
2019-05-29T00:31:01.611Z,8.48
2019-05-29T00:33:33.663Z,6.78
2019-05-29T00:36:04.379Z,9.05
2019-05-29T00:38:35.150Z,4.85
2019-05-29T00:41:08.878Z,9.55
2019-05-29T00:43:40.494Z,8.55
2019-05-29T00:46:11.397Z,5.80
2019-05-29T00:48:42.235Z,5.30
2019-05-29T00:51:13.018Z,5.22
2019-05-29T00:53:43.801Z,8.23
2019-05-29T00:56:16.677Z,9.40
2019-05-29T00:58:49.032Z,6.05
2019-05-29T01:01:20.135Z,4.70
2019-05-29T01:03:52.279Z,6.47
2019-05-29T01:06:22.920Z,11.33
2019-05-29T01:08:53.832Z,6.47
2019-05-29T01:11:25.076Z,7.17
2019-05-29T01:13:55.747Z,8.25
2019-05-29T01:16:26.474Z,5.22
2019-05-29T01:18:58.759Z,4.95
2019-05-29T01:21:30.928Z,4.40
2019-05-29T01:24:01.654Z,6.22
2019-05-29T01:26:33.606Z,5.00
2019-05-29T01:29:05.121Z,5.30
2019-05-29T01:31:35.901Z,5.45
2019-05-29T01:34:06.556Z,4.67
2019-05-29T01:36:37.303Z,6.22
2019-05-29T01:39:08.893Z,4.45
2019-05-29T01:41:39.678Z,5.40
2019-05-29T01:44:10.716Z,6.90
2019-05-29T01:46:42.451Z,4.12
2019-05-29T01:49:13.031Z,5.87
2019-05-29T01:51:43.696Z,8.93
2019-05-29T01:54:15.441Z,11.43
2019-05-29T01:56:46.108Z,7.03
2019-05-29T01:59:17.838Z,4.12
2019-05-29T02:01:48.526Z,5.45
2019-05-29T02:04:19.838Z,7.90
2019-05-29T02:09:20.265Z,8.28
2019-05-29T02:11:50.869Z,7.33
2019-05-29T02:14:22.623Z,5.05
2019-05-29T02:16:53.751Z,3.67
2019-05-29T02:19:24.565Z,6.35
2019-05-29T02:21:55.276Z,5.90
2019-05-29T02:24:25.921Z,4.33
2019-05-29T02:26:56.620Z,6.97
2019-05-29T02:29:27.341Z,6.70
2019-05-29T02:32:00.421Z,8.85
2019-05-29T02:34:31.021Z,12.07
2019-05-29T02:37:01.728Z,7.22
2019-05-29T02:39:32.403Z,9.15
2019-05-29T02:42:03.088Z,8.33
2019-05-29T02:44:33.714Z,6.85
2019-05-29T02:47:05.333Z,7.60
2019-05-29T02:49:35.881Z,5.53
2019-05-29T02:52:06.542Z,8.20
2019-05-29T02:54:37.224Z,7.37
2019-05-29T02:57:07.863Z,10.00
2019-05-29T02:59:38.633Z,8.20
2019-05-29T03:02:10.089Z,7.35
2019-05-29T03:04:42.834Z,10.30
2019-05-29T03:07:13.478Z,12.45
2019-05-29T03:09:44.165Z,10.28
2019-05-29T03:12:17.953Z,8.63
2019-05-29T03:14:48.478Z,9.08
2019-05-29T03:17:19.201Z,10.38
2019-05-29T03:19:49.910Z,11.57
2019-05-29T03:22:20.670Z,10.72
2019-05-29T03:24:51.368Z,11.73
2019-05-29T03:27:22.129Z,13.85
2019-05-29T03:29:55.839Z,12.15
2019-05-29T03:32:28.003Z,11.20
2019-05-29T03:34:58.891Z,11.45
2019-05-29T03:37:30.336Z,14.78
2019-05-29T03:40:01.171Z,9.53
2019-05-29T03:42:32.604Z,19.02
2019-05-29T03:45:03.388Z,17.30
2019-05-29T03:47:35.078Z,15.58
2019-05-29T03:50:06.294Z,13.55
2019-05-29T03:52:38.994Z,13.15
2019-05-29T03:55:09.329Z,13.65
2019-05-29T03:57:41.136Z,15.83
2019-05-29T04:00:13.648Z,13.72
2019-05-29T04:02:44.526Z,17.73
2019-05-29T04:05:15.309Z,16.05
2019-05-29T04:07:45.988Z,18.57
2019-05-29T04:10:22.844Z,16.70
2019-05-29T04:12:53.558Z,14.80
2019-05-29T04:15:24.475Z,14.95
2019-05-29T04:17:56.542Z,16.12
2019-05-29T04:20:27.635Z,16.52
2019-05-29T04:23:00.015Z,16.77
2019-05-29T04:25:38.329Z,12.47
2019-05-29T04:28:09.245Z,11.45
2019-05-29T04:30:39.900Z,13.55
2019-05-29T04:33:13.924Z,11.50
2019-05-29T04:35:44.751Z,14.80
2019-05-29T04:38:17.464Z,12.90
2019-05-29T04:40:48.216Z,10.38
2019-05-29T04:43:19.002Z,12.70
2019-05-29T04:45:50.152Z,13.03
2019-05-29T04:48:20.906Z,14.53
2019-05-29T04:50:52.577Z,15.75
2019-05-29T04:53:26.812Z,12.47
2019-05-29T04:55:57.522Z,12.63
2019-05-29T04:58:28.770Z,12.05
2019-05-29T05:03:37.179Z,14.85
2019-05-29T05:06:08.170Z,12.23
2019-05-29T05:08:40.212Z,14.95
2019-05-29T05:11:12.423Z,15.00
2019-05-29T05:16:12.811Z,13.98
2019-05-29T05:18:43.549Z,13.38
2019-05-29T05:21:14.174Z,15.15
2019-05-29T05:23:47.555Z,10.98
2019-05-29T05:26:18.474Z,9.73
2019-05-29T05:28:51.484Z,10.72
2019-05-29T05:31:22.913Z,13.62
2019-05-29T05:33:53.602Z,15.38
2019-05-29T05:36:24.489Z,13.28
2019-05-29T05:38:56.464Z,12.58
2019-05-29T05:41:27.114Z,11.12
2019-05-29T05:43:59.005Z,12.85
2019-05-29T05:46:32.850Z,10.08
2019-05-29T05:49:03.702Z,10.68
2019-05-29T05:51:38.145Z,12.07
2019-05-29T05:54:06.735Z,11.25
2019-05-29T05:56:37.940Z,13.32
2019-05-29T05:59:08.847Z,12.23
2019-05-29T06:01:42.119Z,9.35
2019-05-29T06:04:15.482Z,9.73
2019-05-29T06:06:46.570Z,8.10
2019-05-29T06:09:17.275Z,9.95
2019-05-29T06:11:49.113Z,10.88
2019-05-29T06:14:19.836Z,9.60
2019-05-29T06:16:50.476Z,13.48
2019-05-29T06:19:21.217Z,11.20
2019-05-29T06:21:51.941Z,9.90
2019-05-29T06:24:22.629Z,12.95
2019-05-29T06:26:53.262Z,15.08
2019-05-29T06:29:23.933Z,11.53
2019-05-29T06:31:54.603Z,13.78
2019-05-29T06:34:26.863Z,15.72
2019-05-29T06:39:27.170Z,13.45
2019-05-29T06:41:57.814Z,11.08
2019-05-29T06:44:28.430Z,13.28
2019-05-29T06:46:58.905Z,13.50
2019-05-29T06:49:30.084Z,13.68
2019-05-29T06:52:00.983Z,17.35
2019-05-29T06:54:33.067Z,14.23
2019-05-29T06:57:15.759Z,15.03
2019-05-29T06:59:46.456Z,15.63
2019-05-29T07:02:19.441Z,15.95
2019-05-29T07:04:50.212Z,14.25
2019-05-29T07:07:20.943Z,12.10
2019-05-29T07:09:54.338Z,14.80
2019-05-29T07:12:25.115Z,12.13
2019-05-29T07:15:01.174Z,15.93
2019-05-29T07:17:32.864Z,13.90
2019-05-29T07:20:04.400Z,14.05
2019-05-29T07:22:36.810Z,9.73
2019-05-29T07:25:08.230Z,9.35
2019-05-29T07:30:09.951Z,9.45
2019-05-29T07:35:13.310Z,7.47
2019-05-29T07:37:44.072Z,13.75
2019-05-29T07:40:15.324Z,8.30
2019-05-29T07:45:17.981Z,10.23
2019-05-29T07:47:51.054Z,12.18
2019-05-29T07:50:21.850Z,8.70
2019-05-29T07:52:52.597Z,8.33
2019-05-29T07:55:24.324Z,9.58
2019-05-29T07:58:03.118Z,6.28
2019-05-29T08:03:35.205Z,8.03
2019-05-29T08:06:06.198Z,5.92
2019-05-29T08:08:37.332Z,5.37
2019-05-29T08:11:09.254Z,9.88
2019-05-29T08:13:41.422Z,6.90
2019-05-29T08:16:15.395Z,5.42
2019-05-29T08:18:49.021Z,4.35
2019-05-29T08:21:22.099Z,5.33
2019-05-29T08:23:53.441Z,4.47
2019-05-29T08:26:28.316Z,5.42
2019-05-29T08:29:02.095Z,3.42
2019-05-29T08:31:33.024Z,3.98
2019-05-29T08:34:05.629Z,4.90
2019-05-29T08:36:36.995Z,3.50
2019-05-29T08:41:53.665Z,4.30
2019-05-29T08:44:13.647Z,3.40
2019-05-29T08:47:01.415Z,6.33
2019-05-29T08:49:19.463Z,3.02
2019-05-29T08:51:50.497Z,3.80
2019-05-29T08:54:24.158Z,4.20
2019-05-29T08:56:54.440Z,1.95
2019-05-29T08:59:25.085Z,3.17
2019-05-29T09:01:55.810Z,4.70
2019-05-29T09:04:26.533Z,3.37
2019-05-29T09:06:57.213Z,4.78
2019-05-29T09:09:27.854Z,6.80
2019-05-29T09:11:58.487Z,3.55
2019-05-29T09:14:29.263Z,4.55
2019-05-29T09:16:59.886Z,4.55
2019-05-29T09:19:30.523Z,3.87
2019-05-29T09:22:01.199Z,5.92
2019-05-29T09:24:32.096Z,6.55
2019-05-29T09:27:02.591Z,2.00
2019-05-29T09:29:34.277Z,1.67
2019-05-29T09:32:04.941Z,4.78
2019-05-29T09:34:35.909Z,2.75
2019-05-29T09:37:06.509Z,3.67
2019-05-29T09:39:37.184Z,3.37
2019-05-29T09:42:07.883Z,5.53
2019-05-29T09:44:40.061Z,3.60
2019-05-29T09:47:12.019Z,4.17
2019-05-29T09:49:42.724Z,2.92
2019-05-29T09:52:13.782Z,3.35
2019-05-29T09:54:46.341Z,6.53
2019-05-29T09:57:17.062Z,2.50
2019-05-29T09:59:47.825Z,5.03
2019-05-29T10:02:18.658Z,3.50
2019-05-29T10:04:49.212Z,4.60
2019-05-29T10:07:19.919Z,4.42
2019-05-29T10:09:50.713Z,4.58
2019-05-29T10:12:21.451Z,5.25
2019-05-29T10:14:53.693Z,3.62
2019-05-29T10:17:25.556Z,5.72
2019-05-29T10:19:57.228Z,5.20
2019-05-29T10:22:28.434Z,9.50
2019-05-29T10:25:00.008Z,4.17
2019-05-29T10:27:30.805Z,7.15
2019-05-29T10:30:01.441Z,6.17
2019-05-29T10:35:04.576Z,4.97
2019-05-29T10:37:35.404Z,7.62
2019-05-29T10:40:06.775Z,5.50
2019-05-29T10:42:37.576Z,6.95
2019-05-29T10:45:08.988Z,4.37
2019-05-29T10:47:39.711Z,4.30
2019-05-29T10:50:11.165Z,4.28
2019-05-29T10:52:42.126Z,6.58
2019-05-29T10:55:15.957Z,3.95
2019-05-29T10:57:46.722Z,7.65
2019-05-29T11:00:17.949Z,8.15
2019-05-29T11:05:20.122Z,3.72
2019-05-29T11:07:51.893Z,5.90
2019-05-29T11:10:23.149Z,4.58
2019-05-29T11:15:23.473Z,5.22
2019-05-29T11:17:55.339Z,7.15
2019-05-29T11:20:27.850Z,7.10
2019-05-29T11:22:58.557Z,10.32
2019-05-29T11:25:29.340Z,5.62
2019-05-29T11:28:00.007Z,10.03
2019-05-29T11:30:31.237Z,4.47
2019-05-29T11:33:02.628Z,6.70
2019-05-29T11:35:33.346Z,3.08
2019-05-29T11:38:04.173Z,2.35
2019-05-29T11:40:36.197Z,1.95
2019-05-29T11:43:07.141Z,5.25
2019-05-29T11:45:37.890Z,3.62
2019-05-29T11:48:09.503Z,4.17
2019-05-29T11:50:40.314Z,1.77
2019-05-29T11:53:11.088Z,3.67
2019-05-29T11:55:42.705Z,3.02
2019-05-29T11:58:30.044Z,7.90
2019-05-29T12:00:47.067Z,3.15
2019-05-29T12:03:20.596Z,6.50
2019-05-29T12:05:53.376Z,5.40
2019-05-29T12:08:25.077Z,5.42
2019-05-29T12:10:57.169Z,5.08
2019-05-29T12:13:29.674Z,4.37
2019-05-29T12:16:01.856Z,1.82
2019-05-29T12:18:33.391Z,1.85
2019-05-29T12:21:04.129Z,4.15
2019-05-29T12:23:38.974Z,1.87
2019-05-29T12:26:21.820Z,5.12
2019-05-29T12:28:42.033Z,4.08
2019-05-29T12:31:12.754Z,3.05
2019-05-29T12:33:43.442Z,3.83
2019-05-29T12:36:14.569Z,2.83
2019-05-29T12:38:45.230Z,5.92
2019-05-29T12:41:15.993Z,3.85
2019-05-29T12:46:16.649Z,3.35
2019-05-29T12:48:47.319Z,3.22
2019-05-29T12:51:17.996Z,2.02
2019-05-29T12:53:48.789Z,2.83
2019-05-29T12:56:20.006Z,5.03
2019-05-29T12:58:51.114Z,3.37
2019-05-29T13:01:21.767Z,3.70
2019-05-29T13:03:52.493Z,3.62
2019-05-29T13:06:22.981Z,7.70
2019-05-29T13:08:54.595Z,7.53
2019-05-29T13:11:25.348Z,4.72
2019-05-29T13:13:56.296Z,3.75
2019-05-29T13:16:27.017Z,5.67
2019-05-29T13:18:58.946Z,6.00
2019-05-29T13:21:29.762Z,4.75
2019-05-29T13:24:02.260Z,3.75
2019-05-29T13:26:34.237Z,2.77
2019-05-29T13:29:06.037Z,4.12
2019-05-29T13:31:36.794Z,5.97
2019-05-29T13:34:07.422Z,6.17
2019-05-29T13:36:38.131Z,2.83
2019-05-29T13:39:09.328Z,4.87
2019-05-29T13:41:39.920Z,6.50
2019-05-29T13:44:10.607Z,5.62
2019-05-29T13:46:41.265Z,7.53
2019-05-29T13:49:11.970Z,8.38
2019-05-29T13:51:42.762Z,5.45
2019-05-29T13:54:17.051Z,6.67
2019-05-29T13:56:45.941Z,2.62
2019-05-29T13:59:16.565Z,7.78
2019-05-29T14:01:48.611Z,3.55
2019-05-29T14:04:19.601Z,3.62
2019-05-29T14:06:52.878Z,1.72
2019-05-29T14:09:23.274Z,1.57
2019-05-29T14:14:23.630Z,7.30
2019-05-29T14:16:54.957Z,6.37
2019-05-29T14:21:55.432Z,4.22
2019-05-29T14:24:29.647Z,3.33
2019-05-29T14:26:58.570Z,7.35
2019-05-29T14:29:29.193Z,2.75
2019-05-29T14:32:00.969Z,2.95
2019-05-29T14:34:33.193Z,2.15
2019-05-29T14:37:04.950Z,5.62
2019-05-29T14:39:36.153Z,4.53
2019-05-29T14:42:08.260Z,0.80
2019-05-29T14:44:39.044Z,2.20
2019-05-29T14:47:10.272Z,1.32
2019-05-29T14:49:40.943Z,1.98
2019-05-29T14:52:12.079Z,3.35
2019-05-29T14:54:44.002Z,3.47
2019-05-29T14:57:24.772Z,4.65
2019-05-29T14:59:48.888Z,4.15
2019-05-29T15:02:23.810Z,2.42
2019-05-29T15:04:52.302Z,3.37
2019-05-29T15:07:23.179Z,2.45
2019-05-29T15:09:54.038Z,5.75
2019-05-29T15:12:24.755Z,2.95
2019-05-29T15:14:55.802Z,2.30
2019-05-29T15:17:26.650Z,4.03
2019-05-29T15:19:59.936Z,4.10
2019-05-29T15:22:30.779Z,2.40
2019-05-29T15:25:11.277Z,2.47
2019-05-29T15:27:36.565Z,7.28
2019-05-29T15:30:08.793Z,4.65
2019-05-29T15:32:40.094Z,4.08
2019-05-29T15:35:14.880Z,2.27
2019-05-29T15:37:43.540Z,3.65
2019-05-29T15:40:14.922Z,6.92
2019-05-29T15:42:45.653Z,3.10
2019-05-29T15:45:18.284Z,4.00
2019-05-29T15:47:49.202Z,6.60
2019-05-29T15:50:19.944Z,4.67
2019-05-29T15:52:52.853Z,5.20
2019-05-29T15:55:32.226Z,5.83
2019-05-29T15:57:55.950Z,6.03
2019-05-29T16:00:26.755Z,5.92
2019-05-29T16:03:00.322Z,4.83
2019-05-29T16:05:31.161Z,5.05
2019-05-29T16:08:03.470Z,7.08
2019-05-29T16:10:34.163Z,4.53
2019-05-29T16:13:05.062Z,3.25
2019-05-29T16:15:35.765Z,4.55
2019-05-29T16:18:19.075Z,3.27
2019-05-29T16:20:39.347Z,4.72
2019-05-29T16:23:10.884Z,3.98
2019-05-29T16:25:41.642Z,5.03
2019-05-29T16:28:13.079Z,3.90
2019-05-29T16:30:43.863Z,2.92
2019-05-29T16:33:15.071Z,4.62
2019-05-29T16:38:21.917Z,5.53
2019-05-29T16:40:54.925Z,4.40
2019-05-29T16:43:25.799Z,5.92
2019-05-29T16:45:56.374Z,2.98
2019-05-29T16:48:30.160Z,4.53
2019-05-29T16:51:00.913Z,3.40
2019-05-29T16:53:33.001Z,2.98
2019-05-29T16:56:03.704Z,5.15
2019-05-29T16:58:36.290Z,3.02
2019-05-29T17:01:07.077Z,5.28
2019-05-29T17:03:37.920Z,5.85
2019-05-29T17:06:08.834Z,4.30
2019-05-29T17:08:41.601Z,6.35
2019-05-29T17:11:14.708Z,4.17
2019-05-29T17:13:48.270Z,3.10
2019-05-29T17:16:19.025Z,3.90
2019-05-29T17:18:51.354Z,4.58
2019-05-29T17:21:23.244Z,2.25
2019-05-29T17:23:54.988Z,3.47
2019-05-29T17:26:25.818Z,7.40
2019-05-29T17:28:56.510Z,3.02
2019-05-29T17:31:29.203Z,3.50
2019-05-29T17:34:01.778Z,4.47
2019-05-29T17:36:34.335Z,3.35
2019-05-29T17:39:07.642Z,7.40
2019-05-29T17:41:38.815Z,4.45
2019-05-29T17:44:09.483Z,7.20
2019-05-29T17:46:41.896Z,7.17
2019-05-29T17:49:12.758Z,7.78
2019-05-29T17:51:43.527Z,7.05
2019-05-29T17:54:15.681Z,5.20
2019-05-29T17:56:46.927Z,8.90
2019-05-29T18:01:48.621Z,4.45
2019-05-29T18:04:20.498Z,7.20
2019-05-29T18:06:52.408Z,5.08
2019-05-29T18:09:27.446Z,6.95
2019-05-29T18:12:02.583Z,10.35
2019-05-29T18:14:33.739Z,7.58
2019-05-29T18:17:04.518Z,10.03
2019-05-29T18:19:35.545Z,11.53
2019-05-29T18:22:06.292Z,13.60
2019-05-29T18:24:37.098Z,10.50
2019-05-29T18:27:07.810Z,8.63
2019-05-29T18:29:38.872Z,8.45
2019-05-29T18:32:09.969Z,6.67
2019-05-29T18:34:40.650Z,9.88
2019-05-29T18:37:11.487Z,7.22
2019-05-29T18:39:42.236Z,8.85
2019-05-29T18:42:13.184Z,10.68
2019-05-29T18:44:43.897Z,9.25
2019-05-29T18:47:16.764Z,11.50
2019-05-29T18:49:47.575Z,11.03
2019-05-29T18:52:18.326Z,12.75
2019-05-29T18:54:50.186Z,13.78
2019-05-29T18:57:20.960Z,13.43
2019-05-29T18:59:51.743Z,15.13
2019-05-29T19:02:23.345Z,15.30
2019-05-29T19:04:54.120Z,16.48
2019-05-29T19:07:25.629Z,13.50
2019-05-29T19:09:56.583Z,22.77
2019-05-29T19:12:27.850Z,14.28
2019-05-29T19:14:59.728Z,16.37
2019-05-29T19:17:30.622Z,19.25
2019-05-29T19:20:01.631Z,20.12
2019-05-29T19:22:33.650Z,18.90
2019-05-29T19:25:05.105Z,17.02
2019-05-29T19:27:41.700Z,31.95
2019-05-29T19:30:12.994Z,85.40
2019-05-29T19:32:43.762Z,36.60
2019-05-29T19:35:14.577Z,23.67
2019-05-29T19:37:45.311Z,32.35
2019-05-29T19:40:16.706Z,26.90
2019-05-29T19:45:18.175Z,26.70
2019-05-29T19:47:49.268Z,25.52
2019-05-29T19:50:20.183Z,27.52
2019-05-29T19:52:51.077Z,30.25
2019-05-29T19:55:22.027Z,27.98
2019-05-29T19:57:56.464Z,28.20
2019-05-29T20:00:26.032Z,25.65
2019-05-29T20:02:56.880Z,30.40
2019-05-29T20:05:28.815Z,27.77
2019-05-29T20:08:00.592Z,31.10
2019-05-29T20:10:31.723Z,32.98
2019-05-29T20:13:02.412Z,32.40
2019-05-29T20:15:33.978Z,34.00
2019-05-29T20:18:05.047Z,39.98
2019-05-29T20:20:36.504Z,35.20
2019-05-29T20:23:07.484Z,32.50
2019-05-29T20:25:39.067Z,31.23
2019-05-29T20:28:10.164Z,31.20
2019-05-29T20:30:40.903Z,36.98
2019-05-29T20:33:11.788Z,37.42
2019-05-29T20:35:43.191Z,33.85
2019-05-29T20:38:13.930Z,35.50
2019-05-29T20:40:45.042Z,33.75
2019-05-29T20:43:15.647Z,39.63
2019-05-29T20:45:46.515Z,51.50
2019-05-29T20:48:17.376Z,41.92
2019-05-29T20:50:48.951Z,41.30
2019-05-29T20:53:19.603Z,39.83
2019-05-29T20:55:50.347Z,40.43
2019-05-29T20:58:24.402Z,38.83
2019-05-29T21:00:53.374Z,38.73
2019-05-29T21:03:24.125Z,41.70
2019-05-29T21:05:54.895Z,43.50
2019-05-29T21:08:25.665Z,39.38
2019-05-29T21:10:56.445Z,42.78
2019-05-29T21:13:27.635Z,47.58
2019-05-29T21:15:58.407Z,37.88
2019-05-29T21:18:29.351Z,45.15
2019-05-29T21:23:30.293Z,42.93
2019-05-29T21:26:01.187Z,46.02
2019-05-29T21:28:43.595Z,45.28
2019-05-29T21:31:10.386Z,42.78
2019-05-29T21:33:45.044Z,40.33
2019-05-29T21:36:14.155Z,41.70
2019-05-29T21:38:46.390Z,53.23
2019-05-29T21:41:17.832Z,53.33
2019-05-29T21:46:18.494Z,54.58
2019-05-29T21:48:55.201Z,43.35
2019-05-29T21:51:28.784Z,48.13
2019-05-29T21:54:00.471Z,42.50
2019-05-29T21:56:31.481Z,38.90
2019-05-29T21:59:04.309Z,42.60
2019-05-29T22:01:37.929Z,39.83
2019-05-29T22:04:09.046Z,41.20
2019-05-29T22:06:40.554Z,36.60
2019-05-29T22:09:14.466Z,33.63
2019-05-29T22:11:45.302Z,33.10
2019-05-29T22:14:16.076Z,35.52
2019-05-29T22:16:46.967Z,29.82
2019-05-29T22:19:20.043Z,26.80
2019-05-29T22:21:51.166Z,28.47
2019-05-29T22:24:22.297Z,31.10
2019-05-29T22:26:53.194Z,28.85
2019-05-29T22:29:24.176Z,34.23
2019-05-29T22:31:55.376Z,28.83
2019-05-29T22:34:33.585Z,30.35
2019-05-29T22:37:05.241Z,27.75
2019-05-29T22:39:36.902Z,28.05
2019-05-29T22:42:07.868Z,30.85
2019-05-29T22:44:39.744Z,28.92
2019-05-29T22:47:10.485Z,25.50
2019-05-29T22:49:41.226Z,28.85
2019-05-29T22:52:12.264Z,25.68
2019-05-29T22:54:43.161Z,23.57
2019-05-29T22:57:14.138Z,29.65
2019-05-29T22:59:45.022Z,23.98
2019-05-29T23:02:15.734Z,32.23
2019-05-29T23:04:46.495Z,23.67
2019-05-29T23:07:17.306Z,28.73
2019-05-29T23:09:47.991Z,24.32
2019-05-29T23:12:18.730Z,25.62
2019-05-29T23:14:49.352Z,26.50
2019-05-29T23:17:20.221Z,33.67
2019-05-29T23:19:52.330Z,30.50
2019-05-29T23:22:24.583Z,29.30
2019-05-29T23:24:56.376Z,26.42
2019-05-29T23:27:29.646Z,28.75
2019-05-29T23:30:01.060Z,32.30
2019-05-29T23:32:33.351Z,28.38
2019-05-29T23:35:04.175Z,31.42
2019-05-29T23:37:34.891Z,34.33
2019-05-29T23:40:05.849Z,31.25
2019-05-29T23:42:39.567Z,30.27
2019-05-29T23:45:10.789Z,31.62
2019-05-29T23:50:12.702Z,33.13
2019-05-29T23:52:43.326Z,35.58
2019-05-29T23:55:14.298Z,26.85
2019-05-29T23:57:45.102Z,28.45
